createdAt,value
2017-12-26T00:01:52.784Z,5.52
2017-12-26T00:04:22.602Z,5.49
2017-12-26T00:06:50.023Z,5.48
2017-12-26T00:09:17.489Z,5.48
2017-12-26T00:11:44.923Z,5.51
2017-12-26T00:14:13.282Z,5.49
2017-12-26T00:16:40.703Z,5.48
2017-12-26T00:19:09.441Z,5.44
2017-12-26T00:21:37.205Z,5.45
2017-12-26T00:24:04.647Z,5.48
2017-12-26T00:26:32.128Z,5.44
2017-12-26T00:29:00.431Z,5.45
2017-12-26T00:31:28.127Z,5.44
2017-12-26T00:33:55.575Z,5.44
2017-12-26T00:36:23.077Z,5.50
2017-12-26T00:38:50.544Z,5.53
2017-12-26T00:41:18.689Z,5.54
2017-12-26T00:43:46.136Z,5.57
2017-12-26T00:46:13.589Z,5.55
2017-12-26T00:48:41.038Z,5.53
2017-12-26T00:51:08.589Z,5.54
2017-12-26T00:53:36.137Z,5.56
2017-12-26T00:56:03.644Z,5.50
2017-12-26T00:58:31.057Z,5.44
2017-12-26T01:00:58.537Z,5.45
2017-12-26T01:03:25.991Z,5.48
2017-12-26T01:05:53.427Z,5.46
2017-12-26T01:08:20.887Z,5.47
2017-12-26T01:10:48.343Z,5.45
2017-12-26T01:13:15.767Z,5.47
2017-12-26T01:15:43.279Z,5.44
2017-12-26T01:18:10.773Z,5.42
2017-12-26T01:20:38.214Z,5.43
2017-12-26T01:23:05.901Z,5.46
2017-12-26T01:25:33.406Z,5.44
2017-12-26T01:28:00.844Z,5.46
2017-12-26T01:30:28.356Z,5.44
2017-12-26T01:32:55.832Z,5.45
2017-12-26T01:35:23.268Z,5.45
2017-12-26T01:37:50.711Z,5.45
2017-12-26T01:40:18.151Z,5.45
2017-12-26T01:42:45.569Z,5.46
2017-12-26T01:45:13.828Z,5.47
2017-12-26T01:47:41.255Z,5.45
2017-12-26T01:50:08.678Z,5.46
2017-12-26T01:52:36.389Z,5.45
2017-12-26T01:55:03.858Z,5.46
2017-12-26T01:57:31.297Z,5.48
2017-12-26T01:59:58.707Z,5.46
2017-12-26T02:02:26.242Z,5.44
2017-12-26T02:04:53.668Z,5.47
2017-12-26T02:07:21.088Z,5.47
2017-12-26T02:09:48.562Z,5.48
2017-12-26T02:12:15.986Z,5.47
2017-12-26T02:14:43.411Z,5.48
2017-12-26T02:17:11.568Z,5.47
2017-12-26T02:19:38.973Z,5.47
2017-12-26T02:22:06.674Z,5.50
2017-12-26T02:24:34.586Z,5.53
2017-12-26T02:27:02.006Z,5.50
2017-12-26T02:29:29.532Z,5.50
2017-12-26T02:31:56.969Z,5.50
2017-12-26T02:34:24.392Z,5.49
2017-12-26T02:36:51.820Z,5.51
2017-12-26T02:39:19.261Z,5.51
2017-12-26T02:41:46.806Z,5.50
2017-12-26T02:44:14.282Z,5.51
2017-12-26T02:46:41.733Z,5.52
2017-12-26T02:49:09.188Z,5.50
2017-12-26T02:51:36.638Z,5.51
2017-12-26T02:54:04.094Z,5.54
2017-12-26T02:56:31.538Z,5.54
2017-12-26T02:58:59.081Z,5.58
2017-12-26T03:01:26.503Z,5.59
2017-12-26T03:03:54.236Z,5.60
2017-12-26T03:06:21.651Z,5.59
2017-12-26T03:08:49.106Z,5.62
2017-12-26T03:11:17.433Z,5.63
2017-12-26T03:13:44.904Z,5.64
2017-12-26T03:16:12.331Z,5.64
2017-12-26T03:18:39.796Z,5.63
2017-12-26T03:21:07.228Z,5.63
2017-12-26T03:23:34.687Z,5.62
2017-12-26T03:26:02.202Z,5.62
2017-12-26T03:28:29.628Z,5.60
2017-12-26T03:30:57.067Z,5.59
2017-12-26T03:33:24.522Z,5.59
2017-12-26T03:35:51.964Z,5.59
2017-12-26T03:38:19.476Z,5.57
2017-12-26T03:40:46.908Z,5.58
2017-12-26T03:43:14.609Z,5.57
2017-12-26T03:45:42.037Z,5.59
2017-12-26T03:48:09.554Z,5.58
2017-12-26T03:50:38.940Z,5.59
2017-12-26T03:53:06.392Z,5.58
2017-12-26T03:55:34.565Z,5.58
2017-12-26T03:58:02.019Z,5.57
2017-12-26T04:00:30.413Z,5.59
2017-12-26T04:02:59.776Z,5.59
2017-12-26T04:05:28.840Z,5.58
2017-12-26T04:07:56.549Z,5.61
2017-12-26T04:10:24.100Z,5.59
2017-12-26T04:12:51.843Z,5.59
2017-12-26T04:15:19.353Z,5.61
2017-12-26T04:17:46.848Z,5.61
2017-12-26T04:20:15.162Z,5.63
2017-12-26T04:22:42.929Z,5.64
2017-12-26T04:25:12.412Z,5.68
2017-12-26T04:27:44.180Z,5.69
2017-12-26T04:30:12.622Z,5.69
2017-12-26T04:32:40.137Z,5.71
2017-12-26T04:35:07.923Z,5.74
2017-12-26T04:37:35.421Z,5.71
2017-12-26T04:40:02.908Z,5.69
2017-12-26T04:42:30.657Z,5.68
2017-12-26T04:44:58.145Z,5.64
2017-12-26T04:47:26.473Z,5.63
2017-12-26T04:49:53.964Z,5.64
2017-12-26T04:52:21.442Z,5.63
2017-12-26T04:54:48.968Z,5.63
2017-12-26T04:57:17.427Z,5.66
2017-12-26T04:59:44.909Z,5.68
2017-12-26T05:02:12.389Z,5.67
2017-12-26T05:04:39.883Z,5.68
2017-12-26T05:07:07.894Z,5.69
2017-12-26T05:09:35.368Z,5.72
2017-12-26T05:12:02.866Z,5.66
2017-12-26T05:14:30.369Z,5.63
2017-12-26T05:16:57.853Z,5.61
2017-12-26T05:19:25.391Z,5.65
2017-12-26T05:21:54.905Z,5.64
2017-12-26T05:24:22.386Z,5.63
2017-12-26T05:26:50.268Z,5.63
2017-12-26T05:29:17.787Z,5.62
2017-12-26T05:31:47.245Z,5.63
2017-12-26T05:34:14.785Z,5.63
2017-12-26T05:36:43.150Z,5.65
2017-12-26T05:39:10.652Z,5.63
2017-12-26T05:41:38.183Z,5.58
2017-12-26T05:44:05.685Z,5.57
2017-12-26T05:46:33.178Z,5.58
2017-12-26T05:49:00.904Z,5.54
2017-12-26T05:51:28.500Z,5.52
2017-12-26T05:53:56.013Z,5.53
2017-12-26T05:56:23.517Z,5.53
2017-12-26T05:58:51.026Z,5.54
2017-12-26T06:01:18.526Z,5.53
2017-12-26T06:03:46.066Z,5.53
2017-12-26T06:06:13.528Z,5.54
2017-12-26T06:08:40.987Z,5.52
2017-12-26T06:11:09.281Z,5.53
2017-12-26T06:13:36.810Z,5.57
2017-12-26T06:16:04.311Z,5.57
2017-12-26T06:18:31.829Z,5.57
2017-12-26T06:20:59.326Z,5.58
2017-12-26T06:23:26.843Z,5.59
2017-12-26T06:25:54.360Z,5.61
2017-12-26T06:28:21.902Z,5.63
2017-12-26T06:30:49.412Z,5.63
2017-12-26T06:33:16.920Z,5.65
2017-12-26T06:35:44.422Z,5.63
2017-12-26T06:38:11.962Z,5.63
2017-12-26T06:40:39.473Z,5.66
2017-12-26T06:43:11.930Z,5.65
2017-12-26T06:45:39.674Z,5.65
2017-12-26T06:48:08.984Z,5.63
2017-12-26T06:50:37.339Z,5.67
2017-12-26T06:53:04.854Z,5.68
2017-12-26T06:55:32.381Z,5.69
2017-12-26T06:57:59.854Z,5.69
2017-12-26T07:00:27.415Z,5.72
2017-12-26T07:02:55.121Z,5.73
2017-12-26T07:05:22.909Z,5.74
2017-12-26T07:07:50.405Z,5.76
2017-12-26T07:10:17.904Z,5.76
2017-12-26T07:12:45.474Z,5.77
2017-12-26T07:15:12.984Z,5.76
2017-12-26T07:17:40.478Z,5.79
2017-12-26T07:20:13.434Z,5.80
2017-12-26T07:22:40.941Z,5.81
2017-12-26T07:25:08.433Z,5.84
2017-12-26T07:27:35.925Z,5.87
2017-12-26T07:30:03.446Z,5.93
2017-12-26T07:32:30.924Z,5.97
2017-12-26T07:34:58.446Z,5.98
2017-12-26T07:37:25.944Z,6.00
2017-12-26T07:39:54.317Z,6.01
2017-12-26T07:42:21.815Z,6.02
2017-12-26T07:44:49.329Z,6.06
2017-12-26T07:47:17.079Z,6.09
2017-12-26T07:49:44.611Z,6.11
2017-12-26T07:52:12.090Z,6.15
2017-12-26T07:54:39.596Z,6.20
2017-12-26T07:57:07.120Z,6.26
2017-12-26T07:59:34.673Z,6.29
2017-12-26T08:02:02.202Z,6.29
2017-12-26T08:04:29.690Z,6.31
2017-12-26T08:06:57.119Z,6.34
2017-12-26T08:09:24.637Z,6.37
2017-12-26T08:11:52.082Z,6.42
2017-12-26T08:14:19.549Z,6.40
2017-12-26T08:16:47.037Z,6.47
2017-12-26T08:19:14.470Z,6.47
2017-12-26T08:21:41.973Z,6.50
2017-12-26T08:24:09.422Z,6.55
2017-12-26T08:26:36.860Z,6.59
2017-12-26T08:29:04.366Z,6.60
2017-12-26T08:31:31.804Z,6.60
2017-12-26T08:33:59.599Z,6.66
2017-12-26T08:36:27.031Z,6.73
2017-12-26T08:38:54.752Z,6.77
2017-12-26T08:41:22.194Z,6.82
2017-12-26T08:43:49.654Z,6.87
2017-12-26T08:46:17.085Z,6.93
2017-12-26T08:48:44.508Z,6.96
2017-12-26T08:51:11.968Z,7.00
2017-12-26T08:53:39.421Z,7.02
2017-12-26T08:56:07.649Z,7.03
2017-12-26T08:58:35.121Z,7.00
2017-12-26T09:01:02.573Z,7.01
2017-12-26T09:03:30.012Z,7.00
2017-12-26T09:05:57.480Z,7.01
2017-12-26T09:08:24.969Z,7.03
2017-12-26T09:10:52.435Z,7.00
2017-12-26T09:13:19.892Z,6.99
2017-12-26T09:15:47.331Z,6.99
2017-12-26T09:18:14.836Z,6.97
2017-12-26T09:20:42.285Z,6.99
2017-12-26T09:23:10.791Z,7.01
2017-12-26T09:25:38.251Z,7.03
2017-12-26T09:28:05.657Z,7.06
2017-12-26T09:30:33.121Z,7.10
2017-12-26T09:33:00.576Z,7.18
2017-12-26T09:35:27.996Z,7.23
2017-12-26T09:37:55.465Z,7.23
2017-12-26T09:40:25.806Z,7.31
2017-12-26T09:42:58.329Z,7.56
2017-12-26T09:45:26.625Z,7.73
2017-12-26T09:47:54.045Z,7.72
2017-12-26T09:50:21.484Z,7.73
2017-12-26T09:52:50.551Z,7.75
2017-12-26T09:55:18.047Z,7.71
2017-12-26T09:57:45.659Z,7.73
2017-12-26T10:00:13.204Z,7.73
2017-12-26T10:02:40.732Z,7.75
2017-12-26T10:05:08.227Z,7.78
2017-12-26T10:07:35.710Z,7.82
2017-12-26T10:10:03.178Z,7.83
2017-12-26T10:12:31.451Z,7.86
2017-12-26T10:14:58.916Z,7.91
2017-12-26T10:17:27.041Z,7.93
2017-12-26T10:19:54.542Z,8.01
2017-12-26T10:22:22.059Z,8.09
2017-12-26T10:24:50.279Z,8.14
2017-12-26T10:27:17.746Z,8.21
2017-12-26T10:29:46.027Z,8.24
2017-12-26T10:32:13.545Z,8.23
2017-12-26T10:34:41.063Z,8.26
2017-12-26T10:37:08.623Z,8.33
2017-12-26T10:39:36.162Z,8.41
2017-12-26T10:42:03.650Z,8.45
2017-12-26T10:44:31.120Z,8.53
2017-12-26T10:46:58.597Z,8.59
2017-12-26T10:49:26.066Z,8.63
2017-12-26T10:51:53.806Z,8.64
2017-12-26T10:54:21.294Z,8.67
2017-12-26T10:56:48.785Z,8.68
2017-12-26T10:59:16.261Z,8.71
2017-12-26T11:01:43.939Z,8.78
2017-12-26T11:04:11.373Z,8.77
2017-12-26T11:06:38.836Z,8.73
2017-12-26T11:09:06.334Z,8.76
2017-12-26T11:11:33.840Z,8.82
2017-12-26T11:14:01.288Z,8.89
2017-12-26T11:16:28.763Z,9.00
2017-12-26T11:18:56.302Z,9.10
2017-12-26T11:21:24.010Z,9.14
2017-12-26T11:23:51.492Z,9.26
2017-12-26T11:26:18.910Z,9.33
2017-12-26T11:28:46.393Z,9.39
2017-12-26T11:31:13.853Z,9.41
2017-12-26T11:33:41.382Z,9.45
2017-12-26T11:36:08.834Z,9.54
2017-12-26T11:38:36.286Z,9.62
2017-12-26T11:41:03.856Z,9.72
2017-12-26T11:43:31.393Z,9.82
2017-12-26T11:45:59.099Z,9.97
2017-12-26T11:48:26.605Z,10.09
2017-12-26T11:50:54.794Z,10.18
2017-12-26T11:53:22.251Z,10.27
2017-12-26T11:55:49.745Z,10.38
2017-12-26T11:58:17.179Z,10.41
2017-12-26T12:00:44.653Z,10.50
2017-12-26T12:03:12.093Z,10.51
2017-12-26T12:05:39.530Z,10.56
2017-12-26T12:08:06.998Z,10.58
2017-12-26T12:10:34.453Z,10.56
2017-12-26T12:13:01.898Z,10.54
2017-12-26T12:15:29.411Z,10.54
2017-12-26T12:17:56.897Z,10.60
2017-12-26T12:20:24.361Z,10.63
2017-12-26T12:22:51.819Z,10.63
2017-12-26T12:25:19.269Z,10.59
2017-12-26T12:27:46.718Z,10.52
2017-12-26T12:30:14.234Z,10.41
2017-12-26T12:32:41.672Z,10.35
2017-12-26T12:35:09.123Z,10.25
2017-12-26T12:37:36.592Z,10.19
2017-12-26T12:40:04.095Z,10.13
2017-12-26T12:42:31.586Z,10.08
2017-12-26T12:44:59.025Z,10.07
2017-12-26T12:47:26.498Z,10.09
2017-12-26T12:49:53.937Z,10.10
2017-12-26T12:52:21.586Z,10.12
2017-12-26T12:55:08.245Z,10.22
2017-12-26T12:57:35.784Z,10.28
2017-12-26T13:00:03.279Z,10.29
2017-12-26T13:02:31.023Z,10.27
2017-12-26T13:04:58.485Z,10.26
2017-12-26T13:07:26.010Z,10.22
2017-12-26T13:09:53.453Z,10.18
2017-12-26T13:12:20.891Z,10.16
2017-12-26T13:14:48.385Z,10.13
2017-12-26T13:17:15.965Z,10.12
2017-12-26T13:19:43.501Z,10.07
2017-12-26T13:22:10.978Z,10.04
2017-12-26T13:24:38.438Z,10.06
2017-12-26T13:27:05.912Z,10.04
2017-12-26T13:29:33.368Z,10.08
2017-12-26T13:32:00.941Z,10.13
2017-12-26T13:34:28.427Z,10.21
2017-12-26T13:36:55.971Z,10.24
2017-12-26T13:39:23.454Z,10.24
2017-12-26T13:41:50.896Z,10.25
2017-12-26T13:44:18.339Z,10.30
2017-12-26T13:46:45.806Z,10.32
2017-12-26T13:49:13.251Z,10.39
2017-12-26T13:51:40.743Z,10.40
2017-12-26T13:54:08.205Z,10.41
2017-12-26T13:56:35.647Z,10.40
2017-12-26T13:59:03.157Z,10.44
2017-12-26T14:01:30.664Z,10.46
2017-12-26T14:03:58.173Z,10.46
2017-12-26T14:06:25.629Z,10.51
2017-12-26T14:08:53.156Z,10.53
2017-12-26T14:11:20.642Z,10.49
2017-12-26T14:13:48.185Z,10.47
2017-12-26T14:16:15.620Z,10.39
2017-12-26T14:18:43.070Z,10.34
2017-12-26T14:21:10.518Z,10.20
2017-12-26T14:23:38.064Z,10.15
2017-12-26T14:26:05.534Z,10.06
2017-12-26T14:28:32.995Z,9.96
2017-12-26T14:31:00.525Z,9.87
2017-12-26T14:33:28.090Z,9.78
2017-12-26T14:35:55.543Z,9.59
2017-12-26T14:38:23.047Z,9.25
2017-12-26T14:40:50.784Z,8.93
2017-12-26T14:43:18.250Z,8.68
2017-12-26T14:45:45.744Z,8.47
2017-12-26T14:48:13.192Z,8.37
2017-12-26T14:50:40.701Z,8.28
2017-12-26T14:53:08.141Z,8.20
2017-12-26T14:55:35.694Z,8.18
2017-12-26T14:58:03.183Z,8.15
2017-12-26T15:00:30.667Z,8.17
2017-12-26T15:02:58.103Z,8.14
2017-12-26T15:05:25.576Z,8.14
2017-12-26T15:07:53.078Z,8.15
2017-12-26T15:10:20.535Z,8.17
2017-12-26T15:12:48.036Z,8.24
2017-12-26T15:15:15.551Z,8.24
2017-12-26T15:17:42.974Z,8.27
2017-12-26T15:20:10.503Z,8.36
2017-12-26T15:22:38.216Z,8.38
2017-12-26T15:25:05.699Z,8.48
2017-12-26T15:27:33.145Z,8.50
2017-12-26T15:30:00.614Z,8.49
2017-12-26T15:32:28.049Z,8.50
2017-12-26T15:34:55.501Z,8.52
2017-12-26T15:37:23.682Z,8.52
2017-12-26T15:39:55.560Z,8.58
2017-12-26T15:42:23.013Z,8.56
2017-12-26T15:44:50.554Z,8.57
2017-12-26T15:47:18.028Z,8.60
2017-12-26T15:49:45.478Z,8.59
2017-12-26T15:52:13.006Z,8.53
2017-12-26T15:54:40.819Z,8.56
2017-12-26T15:57:08.280Z,8.56
2017-12-26T15:59:35.731Z,8.53
2017-12-26T16:02:03.149Z,8.51
2017-12-26T16:04:30.731Z,8.54
2017-12-26T16:06:58.162Z,8.56
2017-12-26T16:09:25.658Z,8.53
2017-12-26T16:11:53.124Z,8.51
2017-12-26T16:14:21.408Z,8.47
2017-12-26T16:16:48.821Z,8.37
2017-12-26T16:19:16.278Z,8.38
2017-12-26T16:21:43.970Z,8.34
2017-12-26T16:24:11.433Z,8.31
2017-12-26T16:26:38.888Z,8.25
2017-12-26T16:29:06.389Z,8.22
2017-12-26T16:31:33.864Z,8.19
2017-12-26T16:34:01.320Z,8.15
2017-12-26T16:36:29.610Z,8.14
2017-12-26T16:38:57.072Z,8.11
2017-12-26T16:41:24.500Z,8.10
2017-12-26T16:43:51.998Z,8.08
2017-12-26T16:46:19.529Z,8.07
2017-12-26T16:48:46.956Z,8.10
2017-12-26T16:51:14.431Z,8.09
2017-12-26T16:53:41.875Z,8.09
2017-12-26T16:56:09.929Z,8.06
2017-12-26T16:58:37.384Z,8.07
2017-12-26T17:01:04.839Z,8.03
2017-12-26T17:03:32.294Z,8.02
2017-12-26T17:05:59.742Z,8.02
2017-12-26T17:08:27.265Z,7.94
2017-12-26T17:10:54.719Z,7.92
2017-12-26T17:13:27.215Z,7.87
2017-12-26T17:15:54.652Z,7.83
2017-12-26T17:18:22.143Z,7.83
2017-12-26T17:20:49.589Z,7.80
2017-12-26T17:23:18.034Z,7.77
2017-12-26T17:25:46.252Z,7.73
2017-12-26T17:28:13.697Z,7.67
2017-12-26T17:30:41.524Z,7.62
2017-12-26T17:33:08.973Z,7.63
2017-12-26T17:35:36.412Z,7.58
2017-12-26T17:38:03.881Z,7.56
2017-12-26T17:40:31.303Z,7.61
2017-12-26T17:42:58.788Z,7.85
2017-12-26T17:45:26.254Z,8.12
2017-12-26T17:47:53.675Z,8.27
2017-12-26T17:50:21.193Z,8.31
2017-12-26T17:52:48.632Z,8.34
2017-12-26T17:55:16.127Z,8.35
2017-12-26T17:57:43.619Z,8.17
2017-12-26T18:00:11.086Z,7.97
2017-12-26T18:02:38.540Z,7.80
2017-12-26T18:05:06.030Z,7.68
2017-12-26T18:07:33.582Z,7.61
2017-12-26T18:10:01.214Z,7.60
2017-12-26T18:12:28.936Z,7.54
2017-12-26T18:14:56.410Z,7.46
2017-12-26T18:17:23.884Z,7.45
2017-12-26T18:19:51.342Z,7.40
2017-12-26T18:22:18.792Z,7.39
2017-12-26T18:24:46.280Z,7.35
2017-12-26T18:27:13.734Z,7.35
2017-12-26T18:29:41.254Z,7.32
2017-12-26T18:32:08.712Z,7.28
2017-12-26T18:34:36.187Z,7.26
2017-12-26T18:37:03.698Z,7.22
2017-12-26T18:39:31.277Z,7.21
2017-12-26T18:41:58.711Z,7.16
2017-12-26T18:44:26.238Z,7.15
2017-12-26T18:46:53.949Z,7.13
2017-12-26T18:49:21.404Z,7.09
2017-12-26T18:51:48.833Z,7.08
2017-12-26T18:54:16.935Z,7.06
2017-12-26T18:56:44.383Z,7.05
2017-12-26T18:59:11.879Z,7.03
2017-12-26T19:01:39.320Z,7.04
2017-12-26T19:04:06.861Z,7.04
2017-12-26T19:06:34.350Z,7.05
2017-12-26T19:09:01.838Z,7.04
2017-12-26T19:11:29.386Z,7.07
2017-12-26T19:13:56.816Z,7.05
2017-12-26T19:16:24.262Z,7.02
2017-12-26T19:18:51.765Z,7.01
2017-12-26T19:21:19.251Z,7.00
2017-12-26T19:23:46.708Z,6.96
2017-12-26T19:26:14.160Z,6.92
2017-12-26T19:28:41.624Z,6.93
2017-12-26T19:31:09.095Z,6.94
2017-12-26T19:33:36.573Z,6.94
2017-12-26T19:36:04.018Z,6.92
2017-12-26T19:38:31.699Z,6.91
2017-12-26T19:40:59.140Z,6.91
2017-12-26T19:43:26.594Z,6.90
2017-12-26T19:45:54.057Z,6.87
2017-12-26T19:48:21.528Z,6.85
2017-12-26T19:50:49.056Z,6.88
2017-12-26T19:53:16.540Z,6.84
2017-12-26T19:55:43.984Z,6.86
2017-12-26T19:58:11.449Z,6.84
2017-12-26T20:00:38.909Z,6.84
2017-12-26T20:03:06.391Z,6.80
2017-12-26T20:05:33.814Z,6.79
2017-12-26T20:08:01.343Z,6.78
2017-12-26T20:10:28.806Z,6.91
2017-12-26T20:12:56.523Z,6.98
2017-12-26T20:15:24.030Z,6.94
2017-12-26T20:17:51.558Z,6.86
2017-12-26T20:20:19.036Z,6.83
2017-12-26T20:22:46.519Z,6.80
2017-12-26T20:25:13.958Z,6.78
2017-12-26T20:27:41.413Z,6.77
2017-12-26T20:30:08.893Z,6.77
2017-12-26T20:32:36.427Z,6.77
2017-12-26T20:35:03.848Z,6.82
2017-12-26T20:37:31.375Z,6.79
2017-12-26T20:39:58.851Z,6.80
2017-12-26T20:42:26.352Z,6.82
2017-12-26T20:44:53.811Z,6.82
2017-12-26T20:47:21.322Z,6.84
2017-12-26T20:49:49.050Z,6.84
2017-12-26T20:52:16.508Z,6.87
2017-12-26T20:54:43.972Z,6.86
2017-12-26T20:57:11.474Z,6.86
2017-12-26T20:59:38.976Z,6.93
2017-12-26T21:02:06.456Z,6.87
2017-12-26T21:04:33.967Z,6.86
2017-12-26T21:07:01.449Z,6.84
2017-12-26T21:09:28.900Z,6.86
2017-12-26T21:11:56.378Z,6.84
2017-12-26T21:14:23.818Z,6.83
2017-12-26T21:16:51.245Z,6.83
2017-12-26T21:19:18.729Z,6.85
2017-12-26T21:21:46.311Z,6.86
2017-12-26T21:24:14.010Z,6.87
2017-12-26T21:26:41.453Z,6.86
2017-12-26T21:29:08.951Z,6.87
2017-12-26T21:31:36.413Z,6.88
2017-12-26T21:34:03.850Z,6.90
2017-12-26T21:36:31.328Z,6.89
2017-12-26T21:38:58.785Z,6.90
2017-12-26T21:41:26.269Z,6.92
2017-12-26T21:43:53.752Z,6.97
2017-12-26T21:46:21.192Z,6.89
2017-12-26T21:48:48.782Z,6.85
2017-12-26T21:51:16.207Z,6.85
2017-12-26T21:53:43.699Z,6.84
2017-12-26T21:56:11.175Z,6.88
2017-12-26T21:58:38.628Z,6.88
2017-12-26T22:01:06.173Z,6.89
2017-12-26T22:03:34.316Z,6.87
2017-12-26T22:06:01.838Z,6.87
2017-12-26T22:08:29.318Z,6.87
2017-12-26T22:10:56.764Z,6.86
2017-12-26T22:13:24.282Z,6.87
2017-12-26T22:15:51.816Z,6.86
2017-12-26T22:18:19.287Z,6.86
2017-12-26T22:20:46.781Z,6.86
2017-12-26T22:23:14.530Z,6.85
2017-12-26T22:25:42.050Z,6.84
2017-12-26T22:28:09.808Z,6.82
2017-12-26T22:30:37.304Z,6.80
2017-12-26T22:33:05.577Z,6.77
2017-12-26T22:35:33.030Z,6.76
2017-12-26T22:38:00.511Z,6.69
2017-12-26T22:40:28.220Z,6.62
2017-12-26T22:42:55.714Z,6.60
2017-12-26T22:45:23.883Z,6.56
2017-12-26T22:47:51.365Z,6.55
2017-12-26T22:50:18.816Z,6.55
2017-12-26T22:52:46.510Z,6.53
2017-12-26T22:55:13.944Z,6.49
2017-12-26T22:57:41.473Z,6.52
2017-12-26T23:00:08.981Z,6.53
2017-12-26T23:02:36.494Z,6.53
2017-12-26T23:05:04.649Z,6.51
2017-12-26T23:07:32.122Z,6.52
2017-12-26T23:09:59.543Z,6.50
2017-12-26T23:12:26.990Z,6.48
2017-12-26T23:14:59.944Z,6.45
2017-12-26T23:17:32.929Z,6.47
2017-12-26T23:20:05.857Z,6.48
2017-12-26T23:22:33.327Z,6.44
2017-12-26T23:25:06.276Z,6.44
2017-12-26T23:27:39.194Z,6.43
2017-12-26T23:30:12.129Z,6.42
2017-12-26T23:32:45.026Z,6.42
2017-12-26T23:35:17.984Z,6.43
2017-12-26T23:37:50.931Z,6.45
2017-12-26T23:40:23.947Z,6.44
2017-12-26T23:42:57.789Z,6.46
2017-12-26T23:45:30.732Z,6.48
2017-12-26T23:48:03.635Z,6.45
2017-12-26T23:50:36.699Z,6.45
2017-12-26T23:53:09.679Z,6.43
2017-12-26T23:55:43.347Z,6.43
2017-12-26T23:58:17.254Z,6.39
